sensor_id;sensor_type;location;lat;lon;timestamp;pressure;altitude;pressure_sealevel;temperature;humidity
13050;BME280;6591;51.446;5.404;2023-04-21T00:00:05;101176.75;;;14.15;44.46
13050;BME280;6591;51.446;5.404;2023-04-21T00:02:35;101186.56;;;14.14;44.80
13050;BME280;6591;51.446;5.404;2023-04-21T00:05:08;101175.13;;;14.12;44.81
13050;BME280;6591;51.446;5.404;2023-04-21T00:07:37;101170.72;;;14.11;44.76
13050;BME280;6591;51.446;5.404;2023-04-21T00:10:07;101169.00;;;14.10;45.28
13050;BME280;6591;51.446;5.404;2023-04-21T00:12:34;101161.84;;;14.11;45.22
13050;BME280;6591;51.446;5.404;2023-04-21T00:15:02;101156.59;;;14.09;45.19
13050;BME280;6591;51.446;5.404;2023-04-21T00:17:29;101160.97;;;14.10;45.30
13050;BME280;6591;51.446;5.404;2023-04-21T00:19:56;101150.38;;;14.09;45.74
13050;BME280;6591;51.446;5.404;2023-04-21T00:22:24;101138.84;;;14.08;45.71
13050;BME280;6591;51.446;5.404;2023-04-21T00:24:51;101149.63;;;14.07;46.08
13050;BME280;6591;51.446;5.404;2023-04-21T00:27:18;101149.50;;;14.08;45.91
13050;BME280;6591;51.446;5.404;2023-04-21T00:29:45;101144.16;;;14.08;45.78
13050;BME280;6591;51.446;5.404;2023-04-21T00:32:12;101128.25;;;14.07;45.89
13050;BME280;6591;51.446;5.404;2023-04-21T00:34:39;101136.25;;;14.07;46.29
13050;BME280;6591;51.446;5.404;2023-04-21T00:37:06;101150.47;;;14.07;46.52
13050;BME280;6591;51.446;5.404;2023-04-21T00:39:33;101143.41;;;14.06;46.18
13050;BME280;6591;51.446;5.404;2023-04-21T00:42:00;101136.25;;;14.07;46.52
13050;BME280;6591;51.446;5.404;2023-04-21T00:44:30;101133.66;;;14.05;46.26
13050;BME280;6591;51.446;5.404;2023-04-21T00:46:57;101141.69;;;14.05;46.50
13050;BME280;6591;51.446;5.404;2023-04-21T00:49:25;101135.56;;;14.03;46.58
13050;BME280;6591;51.446;5.404;2023-04-21T00:51:53;101133.84;;;14.02;46.83
13050;BME280;6591;51.446;5.404;2023-04-21T00:54:23;101131.25;;;14.00;46.32
13050;BME280;6591;51.446;5.404;2023-04-21T00:56:53;101137.47;;;14.01;46.43
13050;BME280;6591;51.446;5.404;2023-04-21T00:59:20;101133.84;;;14.02;46.42
13050;BME280;6591;51.446;5.404;2023-04-21T01:01:47;101132.13;;;14.01;46.72
13050;BME280;6591;51.446;5.404;2023-04-21T01:04:15;101137.38;;;14.03;46.67
13050;BME280;6591;51.446;5.404;2023-04-21T01:06:42;101129.38;;;14.03;46.61
13050;BME280;6591;51.446;5.404;2023-04-21T01:09:09;101117.84;;;14.02;46.64
13050;BME280;6591;51.446;5.404;2023-04-21T01:11:38;101109.72;;;14.04;46.54
13050;BME280;6591;51.446;5.404;2023-04-21T01:14:06;101117.72;;;14.04;46.85
13050;BME280;6591;51.446;5.404;2023-04-21T01:16:33;101114.31;;;14.02;46.67
13050;BME280;6591;51.446;5.404;2023-04-21T01:19:00;101108.84;;;14.03;46.88
13050;BME280;6591;51.446;5.404;2023-04-21T01:21:34;101094.75;;;14.01;46.33
13050;BME280;6591;51.446;5.404;2023-04-21T01:24:04;101100.94;;;14.02;46.80
13050;BME280;6591;51.446;5.404;2023-04-21T01:26:31;101092.16;;;13.99;47.39
13050;BME280;6591;51.446;5.404;2023-04-21T01:29:00;101089.56;;;13.98;47.23
13050;BME280;6591;51.446;5.404;2023-04-21T01:31:27;101087.84;;;13.97;47.24
13050;BME280;6591;51.446;5.404;2023-04-21T01:33:54;101088.88;;;13.94;47.32
13050;BME280;6591;51.446;5.404;2023-04-21T01:36:22;101087.94;;;13.95;47.52
13050;BME280;6591;51.446;5.404;2023-04-21T01:38:51;101095.09;;;13.95;47.74
13050;BME280;6591;51.446;5.404;2023-04-21T01:41:18;101084.47;;;13.93;47.86
13050;BME280;6591;51.446;5.404;2023-04-21T01:43:45;101088.81;;;13.96;47.73
13050;BME280;6591;51.446;5.404;2023-04-21T01:46:12;101087.94;;;13.95;47.83
13050;BME280;6591;51.446;5.404;2023-04-21T01:48:39;101081.66;;;13.96;47.79
13050;BME280;6591;51.446;5.404;2023-04-21T01:51:06;101079.06;;;13.95;47.83
13050;BME280;6591;51.446;5.404;2023-04-21T01:53:33;101067.44;;;13.96;47.86
13050;BME280;6591;51.446;5.404;2023-04-21T01:56:00;101059.44;;;13.96;47.85
13050;BME280;6591;51.446;5.404;2023-04-21T01:58:29;101047.88;;;13.95;47.83
13050;BME280;6591;51.446;5.404;2023-04-21T02:00:56;101051.50;;;13.94;47.85
13050;BME280;6591;51.446;5.404;2023-04-21T02:03:23;101060.44;;;13.93;47.56
13050;BME280;6591;51.446;5.404;2023-04-21T02:05:51;101063.38;;;13.89;48.00
13050;BME280;6591;51.446;5.404;2023-04-21T02:08:18;101059.78;;;13.90;47.92
13050;BME280;6591;51.446;5.404;2023-04-21T02:10:45;101055.28;;;13.90;48.19
13050;BME280;6591;51.446;5.404;2023-04-21T02:13:12;101060.63;;;13.90;47.88
13050;BME280;6591;51.446;5.404;2023-04-21T02:15:39;101060.44;;;13.93;47.80
13050;BME280;6591;51.446;5.404;2023-04-21T02:18:06;101058.56;;;13.95;48.05
13050;BME280;6591;51.446;5.404;2023-04-21T02:20:34;101046.16;;;13.94;47.86
13050;BME280;6591;51.446;5.404;2023-04-21T02:23:01;101041.75;;;13.93;47.86
13050;BME280;6591;51.446;5.404;2023-04-21T02:25:28;101037.38;;;13.92;48.01
13050;BME280;6591;51.446;5.404;2023-04-21T02:27:55;101035.75;;;13.90;48.33
13050;BME280;6591;51.446;5.404;2023-04-21T02:30:26;101044.63;;;13.90;47.98
13050;BME280;6591;51.446;5.404;2023-04-21T02:32:53;101041.09;;;13.90;48.21
13050;BME280;6591;51.446;5.404;2023-04-21T02:35:20;101040.16;;;13.91;48.42
13050;BME280;6591;51.446;5.404;2023-04-21T02:37:49;101035.75;;;13.90;48.24
13050;BME280;6591;51.446;5.404;2023-04-21T02:40:16;101038.34;;;13.91;48.11
13050;BME280;6591;51.446;5.404;2023-04-21T02:42:43;101041.00;;;13.91;48.40
13050;BME280;6591;51.446;5.404;2023-04-21T02:45:10;101036.63;;;13.90;48.21
13050;BME280;6591;51.446;5.404;2023-04-21T02:47:37;101043.69;;;13.91;48.71
13050;BME280;6591;51.446;5.404;2023-04-21T02:50:05;101038.41;;;13.90;48.76
13050;BME280;6591;51.446;5.404;2023-04-21T02:52:36;101032.28;;;13.88;48.51
13050;BME280;6591;51.446;5.404;2023-04-21T02:55:04;101042.88;;;13.89;48.91
13050;BME280;6591;51.446;5.404;2023-04-21T02:57:31;101043.75;;;13.90;48.67
13050;BME280;6591;51.446;5.404;2023-04-21T02:59:59;101039.28;;;13.90;48.76
13050;BME280;6591;51.446;5.404;2023-04-21T03:02:26;101034.88;;;13.89;48.50
13050;BME280;6591;51.446;5.404;2023-04-21T03:04:53;101033.25;;;13.87;48.42
13050;BME280;6591;51.446;5.404;2023-04-21T03:07:22;101033.41;;;13.84;48.57
13050;BME280;6591;51.446;5.404;2023-04-21T03:09:49;101027.41;;;13.80;48.66
13050;BME280;6591;51.446;5.404;2023-04-21T03:12:16;101032.88;;;13.77;48.74
13050;BME280;6591;51.446;5.404;2023-04-21T03:14:43;101037.34;;;13.77;48.36
13050;BME280;6591;51.446;5.404;2023-04-21T03:17:10;101027.72;;;13.74;48.48
13050;BME280;6591;51.446;5.404;2023-04-21T03:19:37;101022.41;;;13.74;48.79
13050;BME280;6591;51.446;5.404;2023-04-21T03:22:04;101030.47;;;13.73;48.70
13050;BME280;6591;51.446;5.404;2023-04-21T03:24:33;101036.88;;;13.70;48.76
13050;BME280;6591;51.446;5.404;2023-04-21T03:27:01;101023.53;;;13.70;49.07
13050;BME280;6591;51.446;5.404;2023-04-21T03:29:28;101021.88;;;13.68;48.61
13050;BME280;6591;51.446;5.404;2023-04-21T03:31:55;101021.88;;;13.68;48.85
13050;BME280;6591;51.446;5.404;2023-04-21T03:34:24;101025.59;;;13.65;48.35
13050;BME280;6591;51.446;5.404;2023-04-21T03:36:51;101029.25;;;13.63;48.79
13050;BME280;6591;51.446;5.404;2023-04-21T03:39:18;101035.47;;;13.63;48.72
13050;BME280;6591;51.446;5.404;2023-04-21T03:41:48;101030.06;;;13.65;49.06
13050;BME280;6591;51.446;5.404;2023-04-21T03:44:15;101031.00;;;13.64;48.99
13050;BME280;6591;51.446;5.404;2023-04-21T03:46:42;101028.13;;;13.67;49.24
13050;BME280;6591;51.446;5.404;2023-04-21T03:49:09;101020.84;;;13.70;49.09
13050;BME280;6591;51.446;5.404;2023-04-21T03:51:36;101025.94;;;13.75;49.26
13050;BME280;6591;51.446;5.404;2023-04-21T03:54:03;101031.94;;;13.78;49.12
13050;BME280;6591;51.446;5.404;2023-04-21T03:56:30;101029.97;;;13.82;49.08
13050;BME280;6591;51.446;5.404;2023-04-21T03:58:57;101029.81;;;13.85;48.93
13050;BME280;6591;51.446;5.404;2023-04-21T04:01:24;101030.47;;;13.88;49.21
13050;BME280;6591;51.446;5.404;2023-04-21T04:03:51;101033.88;;;13.92;49.13
13050;BME280;6591;51.446;5.404;2023-04-21T04:06:18;101028.25;;;13.96;49.29
13050;BME280;6591;51.446;5.404;2023-04-21T04:08:45;101030.66;;;14.01;49.18
13050;BME280;6591;51.446;5.404;2023-04-21T04:11:12;101018.06;;;14.03;49.33
13050;BME280;6591;51.446;5.404;2023-04-21T04:13:40;101017.06;;;14.06;49.28
13050;BME280;6591;51.446;5.404;2023-04-21T04:16:07;101018.50;;;14.11;49.35
13050;BME280;6591;51.446;5.404;2023-04-21T04:18:34;101017.38;;;14.15;49.27
13050;BME280;6591;51.446;5.404;2023-04-21T04:21:05;101015.56;;;14.16;49.31
13050;BME280;6591;51.446;5.404;2023-04-21T04:23:35;101009.09;;;14.20;49.38
13050;BME280;6591;51.446;5.404;2023-04-21T04:26:05;101013.50;;;14.21;49.17
13050;BME280;6591;51.446;5.404;2023-04-21T04:28:32;101009.81;;;14.23;49.41
13050;BME280;6591;51.446;5.404;2023-04-21T04:30:59;101011.44;;;14.26;49.20
13050;BME280;6591;51.446;5.404;2023-04-21T04:33:26;101013.16;;;14.27;49.53
13050;BME280;6591;51.446;5.404;2023-04-21T04:35:53;101010.41;;;14.28;49.53
13050;BME280;6591;51.446;5.404;2023-04-21T04:38:20;101020.13;;;14.29;49.36
13050;BME280;6591;51.446;5.404;2023-04-21T04:40:55;101023.66;;;14.30;49.44
13050;BME280;6591;51.446;5.404;2023-04-21T04:43:27;101018.22;;;14.31;49.36
13050;BME280;6591;51.446;5.404;2023-04-21T04:45:54;101018.16;;;14.33;49.36
13050;BME280;6591;51.446;5.404;2023-04-21T04:48:22;101014.63;;;14.32;49.60
13050;BME280;6591;51.446;5.404;2023-04-21T04:50:50;101019.00;;;14.33;49.24
13050;BME280;6591;51.446;5.404;2023-04-21T04:53:17;101018.91;;;14.35;49.55
13050;BME280;6591;51.446;5.404;2023-04-21T04:55:44;101018.84;;;14.36;49.44
13050;BME280;6591;51.446;5.404;2023-04-21T04:58:13;101026.78;;;14.38;49.56
13050;BME280;6591;51.446;5.404;2023-04-21T05:00:40;101019.63;;;14.38;49.63
13050;BME280;6591;51.446;5.404;2023-04-21T05:03:07;101024.00;;;14.39;49.41
13050;BME280;6591;51.446;5.404;2023-04-21T05:05:34;101025.66;;;14.42;49.47
13050;BME280;6591;51.446;5.404;2023-04-21T05:08:01;101021.25;;;14.41;49.68
13050;BME280;6591;51.446;5.404;2023-04-21T05:10:28;101024.72;;;14.43;49.51
13050;BME280;6591;51.446;5.404;2023-04-21T05:12:55;101035.28;;;14.45;49.82
13050;BME280;6591;51.446;5.404;2023-04-21T05:15:22;101031.59;;;14.47;49.69
13050;BME280;6591;51.446;5.404;2023-04-21T05:17:49;101029.59;;;14.51;49.95
13050;BME280;6591;51.446;5.404;2023-04-21T05:20:17;101025.81;;;14.55;49.83
13050;BME280;6591;51.446;5.404;2023-04-21T05:22:44;101040.59;;;14.60;49.77
13050;BME280;6591;51.446;5.404;2023-04-21T05:25:11;101036.69;;;14.66;49.84
13050;BME280;6591;51.446;5.404;2023-04-21T05:27:41;101042.63;;;14.71;49.85
13050;BME280;6591;51.446;5.404;2023-04-21T05:30:10;101047.72;;;14.75;50.18
13050;BME280;6591;51.446;5.404;2023-04-21T05:32:37;101039.44;;;14.80;49.79
13050;BME280;6591;51.446;5.404;2023-04-21T05:35:05;101039.31;;;14.81;49.97
13050;BME280;6591;51.446;5.404;2023-04-21T05:37:32;101044.59;;;14.83;50.03
13050;BME280;6591;51.446;5.404;2023-04-21T05:39:59;101044.59;;;14.83;49.98
13050;BME280;6591;51.446;5.404;2023-04-21T05:42:26;101047.25;;;14.83;49.71
13050;BME280;6591;51.446;5.404;2023-04-21T05:44:53;101045.53;;;14.82;49.72
13050;BME280;6591;51.446;5.404;2023-04-21T05:47:20;101048.19;;;14.82;49.65
13050;BME280;6591;51.446;5.404;2023-04-21T05:49:51;101053.66;;;14.80;49.79
13050;BME280;6591;51.446;5.404;2023-04-21T05:52:19;101057.09;;;14.82;49.83
13050;BME280;6591;51.446;5.404;2023-04-21T05:54:49;101050.00;;;14.81;49.75
13050;BME280;6591;51.446;5.404;2023-04-21T05:57:16;101057.94;;;14.83;50.05
13050;BME280;6591;51.446;5.404;2023-04-21T05:59:43;101050.88;;;14.82;49.84
13050;BME280;6591;51.446;5.404;2023-04-21T06:02:11;101044.59;;;14.83;50.08
13050;BME280;6591;51.446;5.404;2023-04-21T06:04:38;101048.78;;;14.87;50.19
13050;BME280;6591;51.446;5.404;2023-04-21T06:07:09;101042.41;;;14.90;50.18
13050;BME280;6591;51.446;5.404;2023-04-21T06:09:40;101042.03;;;14.96;50.01
13050;BME280;6591;51.446;5.404;2023-04-21T06:12:07;101036.41;;;15.00;50.17
13050;BME280;6591;51.446;5.404;2023-04-21T06:14:34;101046.06;;;15.03;50.26
13050;BME280;6591;51.446;5.404;2023-04-21T06:17:01;101041.41;;;15.06;50.06
13050;BME280;6591;51.446;5.404;2023-04-21T06:19:28;101044.66;;;15.11;50.15
13050;BME280;6591;51.446;5.404;2023-04-21T06:21:56;101043.50;;;15.15;50.27
13050;BME280;6591;51.446;5.404;2023-04-21T06:24:23;101041.31;;;15.22;50.42
13050;BME280;6591;51.446;5.404;2023-04-21T06:26:51;101031.19;;;15.27;50.46
13050;BME280;6591;51.446;5.404;2023-04-21T06:29:19;101031.66;;;15.34;50.45
13050;BME280;6591;51.446;5.404;2023-04-21T06:31:46;101038.34;;;15.41;50.31
13050;BME280;6591;51.446;5.404;2023-04-21T06:34:14;101047.63;;;15.49;50.57
13050;BME280;6591;51.446;5.404;2023-04-21T06:36:41;101049.84;;;15.57;50.20
13050;BME280;6591;51.446;5.404;2023-04-21T06:39:08;101042.19;;;15.65;50.38
13050;BME280;6591;51.446;5.404;2023-04-21T06:41:35;101038.19;;;15.72;50.12
13050;BME280;6591;51.446;5.404;2023-04-21T06:44:02;101038.44;;;15.82;50.37
13050;BME280;6591;51.446;5.404;2023-04-21T06:46:29;101033.56;;;15.88;50.03
13050;BME280;6591;51.446;5.404;2023-04-21T06:48:57;101043.69;;;15.97;50.26
13050;BME280;6591;51.446;5.404;2023-04-21T06:51:24;101041.16;;;16.08;50.39
13050;BME280;6591;51.446;5.404;2023-04-21T06:53:51;101043.81;;;16.23;50.46
13050;BME280;6591;51.446;5.404;2023-04-21T06:56:18;101040.31;;;16.35;50.62
13050;BME280;6591;51.446;5.404;2023-04-21T06:58:45;101042.75;;;16.52;50.77
13050;BME280;6591;51.446;5.404;2023-04-21T07:01:12;101031.97;;;16.66;50.38
13050;BME280;6591;51.446;5.404;2023-04-21T07:03:39;101035.25;;;16.84;50.21
13050;BME280;6591;51.446;5.404;2023-04-21T07:06:07;101035.06;;;17.00;50.16
13050;BME280;6591;51.446;5.404;2023-04-21T07:08:34;101039.34;;;17.15;49.74
13050;BME280;6591;51.446;5.404;2023-04-21T07:11:01;101033.69;;;17.32;49.54
13050;BME280;6591;51.446;5.404;2023-04-21T07:13:28;101031.59;;;17.48;49.56
13050;BME280;6591;51.446;5.404;2023-04-21T07:15:55;101032.41;;;17.63;49.22
13050;BME280;6591;51.446;5.404;2023-04-21T07:18:23;101032.34;;;17.75;49.03
13050;BME280;6591;51.446;5.404;2023-04-21T07:20:50;101032.44;;;17.87;49.13
13050;BME280;6591;51.446;5.404;2023-04-21T07:23:17;101036.94;;;17.99;48.78
13050;BME280;6591;51.446;5.404;2023-04-21T07:25:44;101028.94;;;18.10;48.33
13050;BME280;6591;51.446;5.404;2023-04-21T07:28:11;101034.25;;;18.23;48.36
13050;BME280;6591;51.446;5.404;2023-04-21T07:30:41;101028.94;;;18.34;47.92
13050;BME280;6591;51.446;5.404;2023-04-21T07:33:08;101031.78;;;18.43;47.87
13050;BME280;6591;51.446;5.404;2023-04-21T07:35:35;101032.94;;;18.52;47.77
13050;BME280;6591;51.446;5.404;2023-04-21T07:38:02;101023.59;;;18.57;47.49
13050;BME280;6591;51.446;5.404;2023-04-21T07:40:29;101028.72;;;18.60;47.25
13050;BME280;6591;51.446;5.404;2023-04-21T07:42:56;101028.63;;;18.62;47.12
13050;BME280;6591;51.446;5.404;2023-04-21T07:45:24;101028.25;;;18.67;47.12
13050;BME280;6591;51.446;5.404;2023-04-21T07:47:53;101031.22;;;18.75;47.26
13050;BME280;6591;51.446;5.404;2023-04-21T07:50:20;101025.88;;;18.86;47.21
13050;BME280;6591;51.446;5.404;2023-04-21T07:52:47;101026.41;;;19.02;47.55
13050;BME280;6591;51.446;5.404;2023-04-21T07:55:14;101026.69;;;19.21;47.49
13050;BME280;6591;51.446;5.404;2023-04-21T07:57:41;101037.41;;;19.45;47.35
13050;BME280;6591;51.446;5.404;2023-04-21T08:00:09;101023.94;;;19.67;47.22
13050;BME280;6591;51.446;5.404;2023-04-21T08:02:40;101018.78;;;19.86;46.74
13050;BME280;6591;51.446;5.404;2023-04-21T08:05:07;101024.16;;;19.98;46.11
13050;BME280;6591;51.446;5.404;2023-04-21T08:07:35;101027.91;;;20.06;45.81
13050;BME280;6591;51.446;5.404;2023-04-21T08:10:03;101024.59;;;20.14;45.71
13050;BME280;6591;51.446;5.404;2023-04-21T08:12:30;101028.09;;;20.25;45.80
13050;BME280;6591;51.446;5.404;2023-04-21T08:14:57;101021.72;;;20.38;45.74
13050;BME280;6591;51.446;5.404;2023-04-21T08:17:24;101022.66;;;20.48;45.26
13050;BME280;6591;51.446;5.404;2023-04-21T08:19:51;101021.31;;;20.53;44.97
13050;BME280;6591;51.446;5.404;2023-04-21T08:22:18;101018.94;;;20.60;44.63
13050;BME280;6591;51.446;5.404;2023-04-21T08:24:46;101017.69;;;20.64;44.66
13050;BME280;6591;51.446;5.404;2023-04-21T08:27:13;101028.25;;;20.67;44.31
13050;BME280;6591;51.446;5.404;2023-04-21T08:29:40;101022.59;;;20.70;44.51
13050;BME280;6591;51.446;5.404;2023-04-21T08:32:07;101023.78;;;20.77;44.55
13050;BME280;6591;51.446;5.404;2023-04-21T08:34:34;101014.78;;;20.88;44.71
13050;BME280;6591;51.446;5.404;2023-04-21T08:37:01;101007.59;;;20.98;44.67
13050;BME280;6591;51.446;5.404;2023-04-21T08:39:28;101008.00;;;21.14;44.48
13050;BME280;6591;51.446;5.404;2023-04-21T08:41:57;101010.47;;;21.27;44.18
13050;BME280;6591;51.446;5.404;2023-04-21T08:44:26;101005.72;;;21.40;44.28
13050;BME280;6591;51.446;5.404;2023-04-21T08:46:55;101004.50;;;21.53;44.13
13050;BME280;6591;51.446;5.404;2023-04-21T08:49:24;100999.25;;;21.62;43.34
13050;BME280;6591;51.446;5.404;2023-04-21T08:51:54;101004.00;;;21.69;43.29
13050;BME280;6591;51.446;5.404;2023-04-21T08:54:21;101001.72;;;21.74;43.33
13050;BME280;6591;51.446;5.404;2023-04-21T08:56:48;101002.31;;;21.78;42.82
13050;BME280;6591;51.446;5.404;2023-04-21T08:59:15;100999.06;;;21.84;42.95
13050;BME280;6591;51.446;5.404;2023-04-21T09:02:30;100994.81;;;21.91;43.36
13050;BME280;6591;51.446;5.404;2023-04-21T09:04:59;100997.16;;;22.15;43.20
13050;BME280;6591;51.446;5.404;2023-04-21T09:07:34;100991.19;;;22.30;42.50
13050;BME280;6591;51.446;5.404;2023-04-21T09:10:06;100990.38;;;22.39;41.88
13050;BME280;6591;51.446;5.404;2023-04-21T09:12:33;100977.09;;;22.46;42.29
13050;BME280;6591;51.446;5.404;2023-04-21T09:15:04;100985.25;;;22.56;41.91
13050;BME280;6591;51.446;5.404;2023-04-21T09:17:31;100988.63;;;22.67;42.01
13050;BME280;6591;51.446;5.404;2023-04-21T09:20:21;100984.41;;;22.74;41.92
13050;BME280;6591;51.446;5.404;2023-04-21T09:22:48;100979.38;;;22.89;41.60
13050;BME280;6591;51.446;5.404;2023-04-21T09:25:20;100979.34;;;22.99;41.65
13050;BME280;6591;51.446;5.404;2023-04-21T09:27:48;100980.19;;;23.09;40.89
13050;BME280;6591;51.446;5.404;2023-04-21T09:30:18;100982.72;;;23.20;41.25
13050;BME280;6591;51.446;5.404;2023-04-21T09:32:46;100988.69;;;23.33;41.29
13050;BME280;6591;51.446;5.404;2023-04-21T09:35:13;100985.19;;;23.50;40.60
13050;BME280;6591;51.446;5.404;2023-04-21T09:37:43;100990.84;;;23.67;40.50
13050;BME280;6591;51.446;5.404;2023-04-21T09:40:13;100977.34;;;23.84;40.88
13050;BME280;6591;51.446;5.404;2023-04-21T09:42:43;100977.06;;;24.05;40.31
13050;BME280;6591;51.446;5.404;2023-04-21T09:45:11;100979.97;;;24.21;40.04
13050;BME280;6591;51.446;5.404;2023-04-21T09:47:47;100980.69;;;24.41;39.82
13050;BME280;6591;51.446;5.404;2023-04-21T09:50:16;100985.50;;;24.65;40.45
13050;BME280;6591;51.446;5.404;2023-04-21T09:53:05;100974.50;;;24.92;40.22
13050;BME280;6591;51.446;5.404;2023-04-21T09:55:34;100971.28;;;25.14;39.83
13050;BME280;6591;51.446;5.404;2023-04-21T09:58:02;100956.44;;;25.35;39.33
13050;BME280;6591;51.446;5.404;2023-04-21T10:00:32;100964.81;;;25.49;38.63
13050;BME280;6591;51.446;5.404;2023-04-21T10:03:06;100962.84;;;25.59;38.20
13050;BME280;6591;51.446;5.404;2023-04-21T10:05:38;100956.97;;;25.64;38.19
13050;BME280;6591;51.446;5.404;2023-04-21T10:08:10;100951.16;;;25.67;37.93
13050;BME280;6591;51.446;5.404;2023-04-21T10:10:38;100950.53;;;25.73;37.93
13050;BME280;6591;51.446;5.404;2023-04-21T10:13:13;100940.66;;;25.72;36.84
13050;BME280;6591;51.446;5.404;2023-04-21T10:15:42;100949.50;;;25.74;36.94
13050;BME280;6591;51.446;5.404;2023-04-21T10:18:22;100942.19;;;25.75;36.80
13050;BME280;6591;51.446;5.404;2023-04-21T10:21:09;100938.63;;;25.82;37.67
13050;BME280;6591;51.446;5.404;2023-04-21T10:23:46;100935.59;;;25.93;37.59
13050;BME280;6591;51.446;5.404;2023-04-21T10:26:24;100942.44;;;26.05;37.68
13050;BME280;6591;51.446;5.404;2023-04-21T10:29:05;100928.53;;;26.17;37.11
13050;BME280;6591;51.446;5.404;2023-04-21T10:31:52;100932.97;;;26.34;36.88
13050;BME280;6591;51.446;5.404;2023-04-21T10:34:35;100920.06;;;26.52;37.47
13050;BME280;6591;51.446;5.404;2023-04-21T10:39:50;100915.59;;;26.67;35.39
13050;BME280;6591;51.446;5.404;2023-04-21T10:42:25;100912.19;;;26.65;35.30
13050;BME280;6591;51.446;5.404;2023-04-21T10:45:13;100911.53;;;26.47;34.99
13050;BME280;6591;51.446;5.404;2023-04-21T10:47:46;100900.47;;;26.32;35.19
13050;BME280;6591;51.446;5.404;2023-04-21T10:52:56;100908.41;;;26.17;35.49
13050;BME280;6591;51.446;5.404;2023-04-21T10:55:28;100902.66;;;26.29;36.24
13050;BME280;6591;51.446;5.404;2023-04-21T10:57:56;100896.91;;;26.48;36.51
13050;BME280;6591;51.446;5.404;2023-04-21T11:00:25;100906.91;;;26.72;36.37
13050;BME280;6591;51.446;5.404;2023-04-21T11:03:01;100892.78;;;26.92;35.45
13050;BME280;6591;51.446;5.404;2023-04-21T11:05:35;100892.94;;;26.99;34.46
13050;BME280;6591;51.446;5.404;2023-04-21T11:08:13;100885.94;;;26.96;35.51
13050;BME280;6591;51.446;5.404;2023-04-21T11:10:56;100880.84;;;26.93;35.72
13050;BME280;6591;51.446;5.404;2023-04-21T11:13:26;100877.94;;;26.95;35.10
13050;BME280;6591;51.446;5.404;2023-04-21T11:16:05;100881.88;;;26.92;34.60
13050;BME280;6591;51.446;5.404;2023-04-21T11:18:42;100879.78;;;26.86;34.26
13050;BME280;6591;51.446;5.404;2023-04-21T11:21:14;100867.75;;;26.89;35.05
13050;BME280;6591;51.446;5.404;2023-04-21T11:23:54;100859.53;;;26.97;34.84
13050;BME280;6591;51.446;5.404;2023-04-21T11:26:35;100860.31;;;27.14;34.55
13050;BME280;6591;51.446;5.404;2023-04-21T11:29:06;100856.50;;;27.31;34.67
13050;BME280;6591;51.446;5.404;2023-04-21T11:31:37;100844.16;;;27.43;33.97
13050;BME280;6591;51.446;5.404;2023-04-21T11:34:05;100842.44;;;27.50;33.56
13050;BME280;6591;51.446;5.404;2023-04-21T11:36:39;100840.06;;;27.47;32.77
13050;BME280;6591;51.446;5.404;2023-04-21T11:39:12;100833.59;;;27.40;32.77
13050;BME280;6591;51.446;5.404;2023-04-21T11:41:48;100824.03;;;27.44;33.29
13050;BME280;6591;51.446;5.404;2023-04-21T11:44:38;100827.25;;;27.56;33.25
13050;BME280;6591;51.446;5.404;2023-04-21T11:47:22;100818.41;;;27.76;33.31
13050;BME280;6591;51.446;5.404;2023-04-21T11:49:59;100815.13;;;28.04;33.58
13050;BME280;6591;51.446;5.404;2023-04-21T11:52:31;100820.88;;;28.32;33.01
13050;BME280;6591;51.446;5.404;2023-04-21T11:55:12;100820.03;;;28.31;31.42
13050;BME280;6591;51.446;5.404;2023-04-21T11:57:45;100823.00;;;28.21;31.44
13050;BME280;6591;51.446;5.404;2023-04-21T12:00:13;100817.47;;;28.07;31.67
13050;BME280;6591;51.446;5.404;2023-04-21T12:02:43;100821.41;;;27.90;31.20
13050;BME280;6591;51.446;5.404;2023-04-21T12:05:12;100814.34;;;27.72;31.06
13050;BME280;6591;51.446;5.404;2023-04-21T12:07:45;100819.09;;;27.48;30.98
13050;BME280;6591;51.446;5.404;2023-04-21T12:10:17;100806.91;;;27.27;31.75
13050;BME280;6591;51.446;5.404;2023-04-21T12:12:45;100809.38;;;27.14;31.56
13050;BME280;6591;51.446;5.404;2023-04-21T12:15:18;100806.34;;;27.01;31.73
13050;BME280;6591;51.446;5.404;2023-04-21T12:17:50;100798.72;;;26.80;31.08
13050;BME280;6591;51.446;5.404;2023-04-21T12:20:21;100794.72;;;26.52;31.42
13050;BME280;6591;51.446;5.404;2023-04-21T12:22:49;100797.69;;;26.26;31.21
13050;BME280;6591;51.446;5.404;2023-04-21T12:25:17;100793.03;;;26.02;31.56
13050;BME280;6591;51.446;5.404;2023-04-21T12:27:49;100794.09;;;25.85;31.51
13050;BME280;6591;51.446;5.404;2023-04-21T12:30:18;100794.06;;;25.77;31.96
13050;BME280;6591;51.446;5.404;2023-04-21T12:32:45;100794.59;;;25.64;32.06
13050;BME280;6591;51.446;5.404;2023-04-21T12:35:13;100779.09;;;25.57;31.64
13050;BME280;6591;51.446;5.404;2023-04-21T12:37:40;100784.13;;;25.44;31.63
13050;BME280;6591;51.446;5.404;2023-04-21T12:40:07;100785.31;;;25.33;32.05
13050;BME280;6591;51.446;5.404;2023-04-21T12:42:35;100774.59;;;25.31;32.86
13050;BME280;6591;51.446;5.404;2023-04-21T12:45:05;100786.16;;;25.42;32.72
13050;BME280;6591;51.446;5.404;2023-04-21T12:47:32;100784.50;;;25.49;32.75
13050;BME280;6591;51.446;5.404;2023-04-21T12:50:00;100781.28;;;25.53;31.82
13050;BME280;6591;51.446;5.404;2023-04-21T12:52:27;100765.66;;;25.55;32.47
13050;BME280;6591;51.446;5.404;2023-04-21T12:54:54;100769.06;;;25.57;31.97
13050;BME280;6591;51.446;5.404;2023-04-21T12:57:21;100774.00;;;25.62;32.14
13050;BME280;6591;51.446;5.404;2023-04-21T12:59:48;100764.16;;;25.69;32.67
13050;BME280;6591;51.446;5.404;2023-04-21T13:02:15;100774.88;;;25.79;31.73
13050;BME280;6591;51.446;5.404;2023-04-21T13:04:42;100771.63;;;25.83;31.94
13050;BME280;6591;51.446;5.404;2023-04-21T13:07:10;100769.25;;;25.88;31.84
13050;BME280;6591;51.446;5.404;2023-04-21T13:09:37;100758.19;;;25.98;32.04
13050;BME280;6591;51.446;5.404;2023-04-21T13:12:05;100765.84;;;26.10;32.56
13050;BME280;6591;51.446;5.404;2023-04-21T13:14:32;100762.44;;;26.25;32.47